createdAt,value
2022-09-20T00:07:27.377Z,101229.19
2022-09-20T00:15:02.554Z,101240.72
2022-09-20T00:22:37.759Z,101234.38
2022-09-20T00:30:12.564Z,101245.09
2022-09-20T00:37:47.688Z,101239.78
2022-09-20T00:45:23.246Z,101239.72
2022-09-20T00:53:03.376Z,101238.81
2022-09-20T01:00:39.272Z,101242.34
2022-09-20T01:08:14.963Z,101253.00
2022-09-20T01:15:50.492Z,101252.84
2022-09-20T01:23:46.273Z,101248.44
2022-09-20T01:31:26.688Z,101250.19
2022-09-20T01:39:08.624Z,101247.34
2022-09-20T01:46:44.889Z,101252.81
2022-09-20T01:55:03.870Z,101253.69
2022-09-20T02:03:08.002Z,101259.94
2022-09-20T02:11:07.398Z,101266.97
2022-09-20T02:19:07.853Z,101273.28
2022-09-20T02:26:50.315Z,101263.56
2022-09-20T02:34:40.026Z,101275.16
2022-09-20T02:42:19.665Z,101270.72
2022-09-20T02:50:07.507Z,101277.06
2022-09-20T02:57:49.759Z,101284.19
2022-09-20T03:05:28.944Z,101287.88
2022-09-20T03:13:16.158Z,101287.94
2022-09-20T03:21:02.728Z,101289.78
2022-09-20T03:28:54.308Z,101304.16
2022-09-20T03:36:45.166Z,101307.69
2022-09-20T03:44:49.367Z,101315.63
2022-09-20T03:52:46.143Z,101315.63
2022-09-20T04:00:25.630Z,101311.19
2022-09-20T04:08:14.477Z,101318.31
2022-09-20T04:16:03.058Z,101330.78
2022-09-20T04:23:46.951Z,101324.50
2022-09-20T04:31:34.346Z,101328.94
2022-09-20T04:39:25.082Z,101324.44
2022-09-20T04:47:23.192Z,101330.75
2022-09-20T04:55:53.943Z,101329.81
2022-09-20T05:03:56.759Z,101336.88
2022-09-20T05:11:51.406Z,101352.00
2022-09-20T05:19:39.613Z,101354.72
2022-09-20T05:27:28.550Z,101376.13
2022-09-20T05:35:13.851Z,101384.31
2022-09-20T05:42:50.662Z,101384.41
2022-09-20T05:50:44.418Z,101401.47
2022-09-20T05:58:36.298Z,101399.91
2022-09-20T06:06:21.629Z,101407.16
2022-09-20T06:14:03.798Z,101405.47
2022-09-20T06:21:47.712Z,101418.97
2022-09-20T06:29:30.998Z,101420.03
2022-09-20T06:37:37.791Z,101424.59
2022-09-20T06:45:11.775Z,101437.25
2022-09-20T06:52:47.514Z,101433.94
2022-09-20T07:00:21.473Z,101441.44
2022-09-20T07:07:59.650Z,101442.75
2022-09-20T07:15:34.793Z,101459.13
2022-09-20T07:23:10.088Z,101464.13
2022-09-20T07:30:44.120Z,101469.03
2022-09-20T07:38:19.282Z,101475.69
2022-09-20T07:45:56.015Z,101484.06
2022-09-20T07:53:31.450Z,101484.56
2022-09-20T08:01:08.149Z,101493.44
2022-09-20T08:08:44.621Z,101498.81
2022-09-20T08:16:19.023Z,101504.75
2022-09-20T08:23:54.877Z,101510.69
2022-09-20T08:31:31.471Z,101514.56
2022-09-20T08:47:09.806Z,101530.09
2022-09-20T08:54:45.067Z,101527.50
2022-09-20T09:02:22.773Z,101536.03
2022-09-20T09:09:58.134Z,101537.03
2022-09-20T09:17:32.159Z,101535.00
2022-09-20T09:25:24.336Z,101550.25
2022-09-20T09:33:19.387Z,101547.63
2022-09-20T09:40:56.728Z,101559.16
2022-09-20T09:48:31.628Z,101560.13
2022-09-20T09:56:30.631Z,101556.53
2022-09-20T10:04:14.970Z,101550.34
2022-09-20T10:12:09.722Z,101562.91
2022-09-20T10:19:59.941Z,101548.28
2022-09-20T10:27:48.339Z,101548.66
2022-09-20T10:35:30.367Z,101562.91
2022-09-20T10:43:21.050Z,101554.00
2022-09-20T10:51:01.291Z,101551.31
2022-09-20T10:58:54.780Z,101564.81
2022-09-20T11:06:41.170Z,101563.25
2022-09-20T11:14:21.247Z,101570.03
2022-09-20T11:22:02.147Z,101567.34
2022-09-20T11:29:42.744Z,101564.88
2022-09-20T11:37:19.302Z,101567.44
2022-09-20T11:44:56.127Z,101578.09
2022-09-20T11:52:47.511Z,101591.19
2022-09-20T12:00:30.862Z,101591.13
2022-09-20T12:08:08.202Z,101596.38
2022-09-20T12:15:43.500Z,101587.53
2022-09-20T12:24:09.553Z,101577.97
2022-09-20T12:31:49.572Z,101582.53
2022-09-20T12:39:29.897Z,101587.91
2022-09-20T12:47:08.900Z,101573.56
2022-09-20T12:54:53.292Z,101584.28
2022-09-20T13:03:00.563Z,101628.59
2022-09-20T13:10:40.345Z,101650.00
2022-09-20T13:18:17.046Z,101676.19
2022-09-20T13:25:51.826Z,101670.66
2022-09-20T13:33:27.048Z,101660.22
2022-09-20T13:41:06.266Z,101661.22
2022-09-20T13:48:41.374Z,101659.53
2022-09-20T13:56:22.603Z,101659.69
2022-09-20T14:04:03.834Z,101659.03
2022-09-20T14:11:38.805Z,101656.19
2022-09-20T14:19:15.230Z,101666.22
2022-09-20T14:27:06.167Z,101667.63
2022-09-20T14:34:42.511Z,101660.81
2022-09-20T14:42:22.007Z,101657.44
2022-09-20T14:49:58.077Z,101649.94
2022-09-20T14:57:32.333Z,101644.50
2022-09-20T15:05:17.254Z,101656.22
2022-09-20T15:12:51.243Z,101664.34
2022-09-20T15:20:26.245Z,101675.88
2022-09-20T15:27:59.877Z,101680.41
2022-09-20T15:35:34.998Z,101682.16
2022-09-20T15:43:11.091Z,101673.28
2022-09-20T15:50:46.203Z,101699.19
2022-09-20T15:58:19.854Z,101709.88
2022-09-20T16:06:04.418Z,101703.75
2022-09-20T16:13:38.778Z,101699.50
2022-09-20T16:21:16.209Z,101708.56
2022-09-20T16:28:50.148Z,101703.94
2022-09-20T16:36:27.454Z,101711.91
2022-09-20T16:44:01.553Z,101720.75
2022-09-20T16:51:38.482Z,101723.22
2022-09-20T16:59:13.389Z,101728.44
2022-09-20T17:06:49.447Z,101728.19
2022-09-20T17:14:24.989Z,101736.88
2022-09-20T17:22:01.574Z,101751.00
2022-09-20T17:29:35.271Z,101759.59
2022-09-20T17:37:10.518Z,101760.97
2022-09-20T17:44:47.919Z,101771.50
2022-09-20T17:52:27.443Z,101782.88
2022-09-20T18:00:02.074Z,101788.19
2022-09-20T18:07:38.679Z,101797.00
2022-09-20T18:15:12.638Z,101801.47
2022-09-20T18:22:52.717Z,101811.97
2022-09-20T18:30:26.462Z,101818.84
2022-09-20T18:38:02.122Z,101828.47
2022-09-20T18:45:35.802Z,101834.34
2022-09-20T18:53:10.895Z,101836.66
2022-09-20T19:00:45.072Z,101846.25
2022-09-20T19:08:26.584Z,101850.47
2022-09-20T19:16:21.592Z,101853.63
2022-09-20T19:24:14.561Z,101865.03
2022-09-20T19:31:50.170Z,101861.19
2022-09-20T19:39:35.177Z,101875.22
2022-09-20T19:47:27.026Z,101889.19
2022-09-20T19:55:02.873Z,101896.88
2022-09-20T20:02:38.276Z,101888.56
2022-09-20T20:10:19.616Z,101893.50
2022-09-20T20:18:02.667Z,101903.94
2022-09-20T20:25:45.213Z,101913.59
2022-09-20T20:33:19.153Z,101910.59
2022-09-20T20:41:04.533Z,101923.72
2022-09-20T20:48:38.495Z,101928.63
2022-09-20T20:56:15.589Z,101937.28
2022-09-20T21:03:51.697Z,101934.16
2022-09-20T21:11:27.996Z,101942.69
2022-09-20T21:19:02.351Z,101941.59
2022-09-20T21:26:38.612Z,101952.03
2022-09-20T21:34:15.545Z,101954.34
2022-09-20T21:41:52.422Z,101974.66
2022-09-20T21:49:26.203Z,101975.16
2022-09-20T21:57:01.540Z,101989.16
2022-09-20T22:04:35.256Z,101983.66
2022-09-20T22:12:10.237Z,101986.19
2022-09-20T22:19:44.726Z,101988.75
2022-09-20T22:27:20.023Z,101985.94
2022-09-20T22:34:53.723Z,101987.50
2022-09-20T22:42:28.962Z,101987.28
2022-09-20T22:50:02.667Z,101987.03
2022-09-20T22:57:37.807Z,101986.78
2022-09-20T23:05:11.560Z,101988.38
2022-09-20T23:12:51.071Z,101989.84
2022-09-20T23:20:24.796Z,101989.47
2022-09-20T23:27:59.850Z,101997.41
2022-09-20T23:35:34.159Z,102008.78
2022-09-20T23:43:09.141Z,102017.44
2022-09-20T23:50:44.432Z,102012.81
2022-09-20T23:58:19.508Z,102017.03
